sensor_id;sensor_type;location;lat;lon;timestamp;P1;durP1;ratioP1;P2;durP2;ratioP2
47489;SDS011;33226;56.996;14.584;2022-07-15T00:00:05;10.75;;;1.65;;
47489;SDS011;33226;56.996;14.584;2022-07-15T00:02:33;12.00;;;2.65;;
47489;SDS011;33226;56.996;14.584;2022-07-15T00:04:59;8.93;;;1.88;;
47489;SDS011;33226;56.996;14.584;2022-07-15T00:07:24;14.65;;;2.58;;
47489;SDS011;33226;56.996;14.584;2022-07-15T00:09:50;9.00;;;1.73;;
47489;SDS011;33226;56.996;14.584;2022-07-15T00:12:34;14.35;;;2.15;;
47489;SDS011;33226;56.996;14.584;2022-07-15T00:15:00;12.73;;;2.15;;
47489;SDS011;33226;56.996;14.584;2022-07-15T00:17:26;15.13;;;2.33;;
47489;SDS011;33226;56.996;14.584;2022-07-15T00:19:52;11.48;;;2.08;;
47489;SDS011;33226;56.996;14.584;2022-07-15T00:22:18;10.70;;;2.03;;
47489;SDS011;33226;56.996;14.584;2022-07-15T00:24:43;11.43;;;2.13;;
47489;SDS011;33226;56.996;14.584;2022-07-15T00:27:09;9.85;;;1.73;;
47489;SDS011;33226;56.996;14.584;2022-07-15T00:29:35;12.73;;;2.15;;
47489;SDS011;33226;56.996;14.584;2022-07-15T00:32:00;10.93;;;2.17;;
47489;SDS011;33226;56.996;14.584;2022-07-15T00:34:26;11.88;;;1.90;;
47489;SDS011;33226;56.996;14.584;2022-07-15T00:36:51;9.10;;;2.17;;
47489;SDS011;33226;56.996;14.584;2022-07-15T00:39:17;15.90;;;2.10;;
47489;SDS011;33226;56.996;14.584;2022-07-15T00:41:43;10.48;;;1.60;;
47489;SDS011;33226;56.996;14.584;2022-07-15T00:44:09;15.18;;;2.92;;
47489;SDS011;33226;56.996;14.584;2022-07-15T00:46:35;11.95;;;1.70;;
47489;SDS011;33226;56.996;14.584;2022-07-15T00:49:06;13.27;;;1.95;;
47489;SDS011;33226;56.996;14.584;2022-07-15T00:51:42;14.88;;;2.13;;
47489;SDS011;33226;56.996;14.584;2022-07-15T00:54:10;12.48;;;3.38;;
47489;SDS011;33226;56.996;14.584;2022-07-15T00:56:38;11.60;;;1.80;;
47489;SDS011;33226;56.996;14.584;2022-07-15T00:59:10;13.67;;;2.83;;
47489;SDS011;33226;56.996;14.584;2022-07-15T01:01:37;10.90;;;2.08;;
47489;SDS011;33226;56.996;14.584;2022-07-15T01:04:03;15.60;;;2.20;;
47489;SDS011;33226;56.996;14.584;2022-07-15T01:06:30;13.43;;;2.08;;
47489;SDS011;33226;56.996;14.584;2022-07-15T01:08:56;9.70;;;1.90;;
47489;SDS011;33226;56.996;14.584;2022-07-15T01:11:21;14.70;;;2.45;;
47489;SDS011;33226;56.996;14.584;2022-07-15T01:13:47;16.70;;;2.28;;
47489;SDS011;33226;56.996;14.584;2022-07-15T01:16:13;13.82;;;2.28;;
47489;SDS011;33226;56.996;14.584;2022-07-15T01:18:39;13.23;;;1.90;;
47489;SDS011;33226;56.996;14.584;2022-07-15T01:21:05;12.07;;;2.28;;
47489;SDS011;33226;56.996;14.584;2022-07-15T01:23:30;7.35;;;1.77;;
47489;SDS011;33226;56.996;14.584;2022-07-15T01:25:56;9.55;;;1.73;;
47489;SDS011;33226;56.996;14.584;2022-07-15T01:28:22;11.93;;;2.28;;
47489;SDS011;33226;56.996;14.584;2022-07-15T01:30:48;13.15;;;2.22;;
47489;SDS011;33226;56.996;14.584;2022-07-15T01:33:14;10.07;;;2.25;;
47489;SDS011;33226;56.996;14.584;2022-07-15T01:35:39;13.38;;;2.50;;
47489;SDS011;33226;56.996;14.584;2022-07-15T01:38:06;16.88;;;2.28;;
47489;SDS011;33226;56.996;14.584;2022-07-15T01:40:33;7.75;;;2.05;;
47489;SDS011;33226;56.996;14.584;2022-07-15T01:42:58;15.27;;;2.38;;
47489;SDS011;33226;56.996;14.584;2022-07-15T01:45:24;14.35;;;2.20;;
47489;SDS011;33226;56.996;14.584;2022-07-15T01:47:50;8.45;;;2.05;;
47489;SDS011;33226;56.996;14.584;2022-07-15T01:50:17;11.00;;;2.25;;
47489;SDS011;33226;56.996;14.584;2022-07-15T01:52:43;8.80;;;2.13;;
47489;SDS011;33226;56.996;14.584;2022-07-15T01:55:09;14.18;;;2.45;;
47489;SDS011;33226;56.996;14.584;2022-07-15T01:57:36;13.13;;;1.95;;
47489;SDS011;33226;56.996;14.584;2022-07-15T02:00:02;9.23;;;1.98;;
47489;SDS011;33226;56.996;14.584;2022-07-15T02:02:29;12.70;;;3.05;;
47489;SDS011;33226;56.996;14.584;2022-07-15T02:04:54;11.25;;;1.95;;
47489;SDS011;33226;56.996;14.584;2022-07-15T02:07:20;16.52;;;2.40;;
47489;SDS011;33226;56.996;14.584;2022-07-15T02:09:46;16.48;;;2.33;;
47489;SDS011;33226;56.996;14.584;2022-07-15T02:12:12;10.27;;;2.10;;
47489;SDS011;33226;56.996;14.584;2022-07-15T02:14:37;12.55;;;3.10;;
47489;SDS011;33226;56.996;14.584;2022-07-15T02:17:03;15.48;;;2.45;;
47489;SDS011;33226;56.996;14.584;2022-07-15T02:19:29;15.52;;;2.83;;
47489;SDS011;33226;56.996;14.584;2022-07-15T02:21:55;10.68;;;2.08;;
47489;SDS011;33226;56.996;14.584;2022-07-15T02:24:21;12.07;;;2.17;;
47489;SDS011;33226;56.996;14.584;2022-07-15T02:26:47;15.10;;;2.17;;
47489;SDS011;33226;56.996;14.584;2022-07-15T02:29:13;15.45;;;2.50;;
47489;SDS011;33226;56.996;14.584;2022-07-15T02:31:40;15.05;;;2.63;;
47489;SDS011;33226;56.996;14.584;2022-07-15T02:34:06;13.38;;;2.78;;
47489;SDS011;33226;56.996;14.584;2022-07-15T02:36:32;14.75;;;2.63;;
47489;SDS011;33226;56.996;14.584;2022-07-15T02:38:57;17.38;;;2.53;;
47489;SDS011;33226;56.996;14.584;2022-07-15T02:41:23;15.43;;;2.28;;
47489;SDS011;33226;56.996;14.584;2022-07-15T02:43:49;12.82;;;3.10;;
47489;SDS011;33226;56.996;14.584;2022-07-15T02:46:15;14.27;;;2.20;;
47489;SDS011;33226;56.996;14.584;2022-07-15T02:48:41;16.00;;;2.10;;
47489;SDS011;33226;56.996;14.584;2022-07-15T02:51:07;15.35;;;2.58;;
47489;SDS011;33226;56.996;14.584;2022-07-15T02:53:33;13.35;;;2.45;;
47489;SDS011;33226;56.996;14.584;2022-07-15T02:56:00;10.23;;;2.38;;
47489;SDS011;33226;56.996;14.584;2022-07-15T02:58:27;17.08;;;2.70;;
47489;SDS011;33226;56.996;14.584;2022-07-15T03:00:54;17.33;;;2.78;;
47489;SDS011;33226;56.996;14.584;2022-07-15T03:03:20;11.13;;;2.05;;
47489;SDS011;33226;56.996;14.584;2022-07-15T03:05:46;13.70;;;2.20;;
47489;SDS011;33226;56.996;14.584;2022-07-15T03:08:11;16.67;;;2.50;;
47489;SDS011;33226;56.996;14.584;2022-07-15T03:10:37;12.02;;;2.20;;
47489;SDS011;33226;56.996;14.584;2022-07-15T03:13:03;13.55;;;2.25;;
47489;SDS011;33226;56.996;14.584;2022-07-15T03:15:29;15.73;;;2.15;;
47489;SDS011;33226;56.996;14.584;2022-07-15T03:17:54;9.50;;;1.90;;
47489;SDS011;33226;56.996;14.584;2022-07-15T03:20:20;9.18;;;1.80;;
47489;SDS011;33226;56.996;14.584;2022-07-15T03:22:46;14.65;;;2.47;;
47489;SDS011;33226;56.996;14.584;2022-07-15T03:25:12;12.20;;;2.47;;
47489;SDS011;33226;56.996;14.584;2022-07-15T03:27:37;10.20;;;2.03;;
47489;SDS011;33226;56.996;14.584;2022-07-15T03:30:03;9.48;;;1.90;;
47489;SDS011;33226;56.996;14.584;2022-07-15T03:32:29;13.43;;;2.33;;
47489;SDS011;33226;56.996;14.584;2022-07-15T03:34:55;15.18;;;2.10;;
47489;SDS011;33226;56.996;14.584;2022-07-15T03:37:22;14.10;;;2.38;;
47489;SDS011;33226;56.996;14.584;2022-07-15T03:39:48;10.95;;;2.55;;
47489;SDS011;33226;56.996;14.584;2022-07-15T03:42:13;9.20;;;2.10;;
47489;SDS011;33226;56.996;14.584;2022-07-15T03:44:39;13.95;;;2.47;;
47489;SDS011;33226;56.996;14.584;2022-07-15T03:47:05;18.30;;;2.28;;
47489;SDS011;33226;56.996;14.584;2022-07-15T03:49:30;12.30;;;1.75;;
47489;SDS011;33226;56.996;14.584;2022-07-15T03:51:56;14.45;;;2.30;;
47489;SDS011;33226;56.996;14.584;2022-07-15T03:54:22;10.85;;;1.65;;
47489;SDS011;33226;56.996;14.584;2022-07-15T03:56:47;11.88;;;1.90;;
47489;SDS011;33226;56.996;14.584;2022-07-15T03:59:14;13.65;;;2.40;;
47489;SDS011;33226;56.996;14.584;2022-07-15T04:01:41;10.43;;;1.90;;
47489;SDS011;33226;56.996;14.584;2022-07-15T04:04:07;8.07;;;1.73;;
47489;SDS011;33226;56.996;14.584;2022-07-15T04:06:34;10.45;;;1.70;;
47489;SDS011;33226;56.996;14.584;2022-07-15T04:08:59;9.02;;;1.95;;
47489;SDS011;33226;56.996;14.584;2022-07-15T04:11:25;10.45;;;1.73;;
47489;SDS011;33226;56.996;14.584;2022-07-15T04:13:51;11.23;;;1.98;;
47489;SDS011;33226;56.996;14.584;2022-07-15T04:16:17;8.70;;;1.58;;
47489;SDS011;33226;56.996;14.584;2022-07-15T04:18:43;9.95;;;1.90;;
47489;SDS011;33226;56.996;14.584;2022-07-15T04:21:08;6.28;;;1.42;;
47489;SDS011;33226;56.996;14.584;2022-07-15T04:23:34;13.80;;;2.28;;
47489;SDS011;33226;56.996;14.584;2022-07-15T04:26:00;9.43;;;1.58;;
47489;SDS011;33226;56.996;14.584;2022-07-15T04:28:26;6.40;;;1.60;;
47489;SDS011;33226;56.996;14.584;2022-07-15T04:30:52;8.15;;;1.48;;
47489;SDS011;33226;56.996;14.584;2022-07-15T04:33:17;4.70;;;1.20;;
47489;SDS011;33226;56.996;14.584;2022-07-15T04:35:44;7.07;;;1.42;;
47489;SDS011;33226;56.996;14.584;2022-07-15T04:38:10;8.18;;;1.85;;
47489;SDS011;33226;56.996;14.584;2022-07-15T04:40:36;4.45;;;1.48;;
47489;SDS011;33226;56.996;14.584;2022-07-15T04:43:04;7.20;;;1.50;;
47489;SDS011;33226;56.996;14.584;2022-07-15T04:45:30;8.13;;;2.00;;
47489;SDS011;33226;56.996;14.584;2022-07-15T04:47:56;8.65;;;1.42;;
47489;SDS011;33226;56.996;14.584;2022-07-15T04:50:21;4.72;;;1.10;;
47489;SDS011;33226;56.996;14.584;2022-07-15T04:53:06;4.40;;;0.80;;
47489;SDS011;33226;56.996;14.584;2022-07-15T04:55:32;4.65;;;1.00;;
47489;SDS011;33226;56.996;14.584;2022-07-15T04:57:58;4.95;;;1.25;;
47489;SDS011;33226;56.996;14.584;2022-07-15T05:00:24;5.07;;;0.90;;
47489;SDS011;33226;56.996;14.584;2022-07-15T05:02:49;4.95;;;1.08;;
47489;SDS011;33226;56.996;14.584;2022-07-15T05:05:15;5.25;;;1.00;;
47489;SDS011;33226;56.996;14.584;2022-07-15T05:07:41;1.60;;;0.80;;
47489;SDS011;33226;56.996;14.584;2022-07-15T05:10:07;4.97;;;0.95;;
47489;SDS011;33226;56.996;14.584;2022-07-15T05:12:34;2.47;;;0.80;;
47489;SDS011;33226;56.996;14.584;2022-07-15T05:15:00;2.28;;;0.65;;
47489;SDS011;33226;56.996;14.584;2022-07-15T05:17:26;2.28;;;0.70;;
47489;SDS011;33226;56.996;14.584;2022-07-15T05:19:51;2.63;;;0.63;;
47489;SDS011;33226;56.996;14.584;2022-07-15T05:22:17;3.28;;;0.90;;
47489;SDS011;33226;56.996;14.584;2022-07-15T05:24:44;2.58;;;0.55;;
47489;SDS011;33226;56.996;14.584;2022-07-15T05:27:10;3.30;;;0.60;;
47489;SDS011;33226;56.996;14.584;2022-07-15T05:29:36;3.65;;;1.10;;
47489;SDS011;33226;56.996;14.584;2022-07-15T05:32:02;0.98;;;0.40;;
47489;SDS011;33226;56.996;14.584;2022-07-15T05:34:28;1.92;;;0.55;;
47489;SDS011;33226;56.996;14.584;2022-07-15T05:36:54;1.35;;;0.43;;
47489;SDS011;33226;56.996;14.584;2022-07-15T05:39:19;1.95;;;0.50;;
47489;SDS011;33226;56.996;14.584;2022-07-15T05:41:45;1.88;;;0.57;;
47489;SDS011;33226;56.996;14.584;2022-07-15T05:44:11;0.82;;;0.45;;
47489;SDS011;33226;56.996;14.584;2022-07-15T05:46:36;0.77;;;0.45;;
47489;SDS011;33226;56.996;14.584;2022-07-15T05:49:02;1.33;;;0.40;;
47489;SDS011;33226;56.996;14.584;2022-07-15T05:51:28;1.02;;;0.35;;
47489;SDS011;33226;56.996;14.584;2022-07-15T05:53:53;0.95;;;0.40;;
47489;SDS011;33226;56.996;14.584;2022-07-15T05:56:19;1.67;;;0.40;;
47489;SDS011;33226;56.996;14.584;2022-07-15T05:58:45;1.90;;;0.43;;
47489;SDS011;33226;56.996;14.584;2022-07-15T06:01:11;1.55;;;0.40;;
47489;SDS011;33226;56.996;14.584;2022-07-15T06:03:36;1.77;;;0.40;;
47489;SDS011;33226;56.996;14.584;2022-07-15T06:06:03;1.60;;;0.50;;
47489;SDS011;33226;56.996;14.584;2022-07-15T06:08:30;6.80;;;0.60;;
47489;SDS011;33226;56.996;14.584;2022-07-15T06:10:56;2.42;;;0.50;;
47489;SDS011;33226;56.996;14.584;2022-07-15T06:13:22;3.38;;;0.40;;
47489;SDS011;33226;56.996;14.584;2022-07-15T06:15:48;2.20;;;0.40;;
47489;SDS011;33226;56.996;14.584;2022-07-15T06:18:14;2.08;;;0.50;;
47489;SDS011;33226;56.996;14.584;2022-07-15T06:20:39;1.33;;;0.50;;
47489;SDS011;33226;56.996;14.584;2022-07-15T06:23:05;1.55;;;0.75;;
47489;SDS011;33226;56.996;14.584;2022-07-15T06:25:31;0.80;;;0.30;;
47489;SDS011;33226;56.996;14.584;2022-07-15T06:27:57;1.75;;;0.40;;
47489;SDS011;33226;56.996;14.584;2022-07-15T06:30:22;3.78;;;0.73;;
47489;SDS011;33226;56.996;14.584;2022-07-15T06:32:48;7.15;;;0.60;;
47489;SDS011;33226;56.996;14.584;2022-07-15T06:35:14;1.13;;;0.40;;
47489;SDS011;33226;56.996;14.584;2022-07-15T06:37:39;1.17;;;0.30;;
47489;SDS011;33226;56.996;14.584;2022-07-15T06:40:05;1.38;;;0.40;;
47489;SDS011;33226;56.996;14.584;2022-07-15T06:42:32;1.45;;;0.60;;
47489;SDS011;33226;56.996;14.584;2022-07-15T06:44:57;1.02;;;0.50;;
47489;SDS011;33226;56.996;14.584;2022-07-15T06:47:23;1.55;;;0.50;;
47489;SDS011;33226;56.996;14.584;2022-07-15T06:49:49;2.30;;;0.50;;
47489;SDS011;33226;56.996;14.584;2022-07-15T06:52:15;1.17;;;0.32;;
47489;SDS011;33226;56.996;14.584;2022-07-15T06:54:41;0.85;;;0.40;;
47489;SDS011;33226;56.996;14.584;2022-07-15T06:57:07;1.83;;;0.50;;
47489;SDS011;33226;56.996;14.584;2022-07-15T06:59:33;1.60;;;0.52;;
47489;SDS011;33226;56.996;14.584;2022-07-15T07:01:59;1.13;;;0.60;;
47489;SDS011;33226;56.996;14.584;2022-07-15T07:04:25;1.00;;;0.32;;
47489;SDS011;33226;56.996;14.584;2022-07-15T07:06:51;1.92;;;0.60;;
47489;SDS011;33226;56.996;14.584;2022-07-15T07:09:16;1.02;;;0.30;;
47489;SDS011;33226;56.996;14.584;2022-07-15T07:11:42;1.15;;;0.40;;
47489;SDS011;33226;56.996;14.584;2022-07-15T07:14:07;0.82;;;0.30;;
47489;SDS011;33226;56.996;14.584;2022-07-15T07:16:33;1.30;;;0.40;;
47489;SDS011;33226;56.996;14.584;2022-07-15T07:18:59;1.35;;;0.50;;
47489;SDS011;33226;56.996;14.584;2022-07-15T07:21:25;0.65;;;0.40;;
47489;SDS011;33226;56.996;14.584;2022-07-15T07:23:50;2.85;;;0.63;;
47489;SDS011;33226;56.996;14.584;2022-07-15T07:26:17;0.65;;;0.43;;
47489;SDS011;33226;56.996;14.584;2022-07-15T07:28:43;1.52;;;0.40;;
47489;SDS011;33226;56.996;14.584;2022-07-15T07:31:11;0.88;;;0.35;;
47489;SDS011;33226;56.996;14.584;2022-07-15T07:33:37;1.10;;;0.50;;
47489;SDS011;33226;56.996;14.584;2022-07-15T07:36:04;0.75;;;0.40;;
47489;SDS011;33226;56.996;14.584;2022-07-15T07:38:31;1.75;;;0.40;;
47489;SDS011;33226;56.996;14.584;2022-07-15T07:40:57;1.52;;;0.40;;
47489;SDS011;33226;56.996;14.584;2022-07-15T07:43:23;3.00;;;0.50;;
47489;SDS011;33226;56.996;14.584;2022-07-15T07:45:49;2.08;;;0.40;;
47489;SDS011;33226;56.996;14.584;2022-07-15T07:48:15;1.40;;;0.45;;
47489;SDS011;33226;56.996;14.584;2022-07-15T07:50:41;0.47;;;0.30;;
47489;SDS011;33226;56.996;14.584;2022-07-15T07:53:08;1.17;;;0.40;;
47489;SDS011;33226;56.996;14.584;2022-07-15T07:55:35;1.73;;;0.40;;
47489;SDS011;33226;56.996;14.584;2022-07-15T07:58:01;1.00;;;0.40;;
47489;SDS011;33226;56.996;14.584;2022-07-15T08:00:28;1.38;;;0.40;;
47489;SDS011;33226;56.996;14.584;2022-07-15T08:02:55;1.52;;;0.52;;
47489;SDS011;33226;56.996;14.584;2022-07-15T08:05:22;1.13;;;0.45;;
47489;SDS011;33226;56.996;14.584;2022-07-15T08:07:49;1.77;;;0.55;;
47489;SDS011;33226;56.996;14.584;2022-07-15T08:10:15;1.17;;;0.55;;
47489;SDS011;33226;56.996;14.584;2022-07-15T08:12:41;1.10;;;0.50;;
47489;SDS011;33226;56.996;14.584;2022-07-15T08:15:08;1.65;;;0.38;;
47489;SDS011;33226;56.996;14.584;2022-07-15T08:17:39;0.85;;;0.50;;
47489;SDS011;33226;56.996;14.584;2022-07-15T08:20:05;0.70;;;0.28;;
47489;SDS011;33226;56.996;14.584;2022-07-15T08:22:33;2.25;;;0.43;;
47489;SDS011;33226;56.996;14.584;2022-07-15T08:24:59;1.30;;;0.50;;
47489;SDS011;33226;56.996;14.584;2022-07-15T08:27:25;1.92;;;0.50;;
47489;SDS011;33226;56.996;14.584;2022-07-15T08:29:50;1.25;;;0.40;;
47489;SDS011;33226;56.996;14.584;2022-07-15T08:32:16;2.08;;;0.55;;
47489;SDS011;33226;56.996;14.584;2022-07-15T08:34:42;3.47;;;0.85;;
47489;SDS011;33226;56.996;14.584;2022-07-15T08:37:08;2.20;;;0.50;;
47489;SDS011;33226;56.996;14.584;2022-07-15T08:39:34;2.22;;;0.40;;
47489;SDS011;33226;56.996;14.584;2022-07-15T08:42:02;1.48;;;0.50;;
47489;SDS011;33226;56.996;14.584;2022-07-15T08:44:29;0.98;;;0.32;;
47489;SDS011;33226;56.996;14.584;2022-07-15T08:46:55;2.03;;;0.60;;
47489;SDS011;33226;56.996;14.584;2022-07-15T08:49:32;1.90;;;0.40;;
47489;SDS011;33226;56.996;14.584;2022-07-15T08:51:59;1.42;;;0.52;;
47489;SDS011;33226;56.996;14.584;2022-07-15T08:54:26;0.95;;;0.40;;
47489;SDS011;33226;56.996;14.584;2022-07-15T08:56:53;1.17;;;0.50;;
47489;SDS011;33226;56.996;14.584;2022-07-15T08:59:21;1.77;;;0.60;;
47489;SDS011;33226;56.996;14.584;2022-07-15T09:01:47;2.38;;;0.60;;
47489;SDS011;33226;56.996;14.584;2022-07-15T09:04:14;1.23;;;0.52;;
47489;SDS011;33226;56.996;14.584;2022-07-15T09:06:42;3.97;;;0.50;;
47489;SDS011;33226;56.996;14.584;2022-07-15T09:14:33;0.70;;;0.40;;
47489;SDS011;33226;56.996;14.584;2022-07-15T09:17:18;1.10;;;0.28;;
47489;SDS011;33226;56.996;14.584;2022-07-15T09:22:55;1.45;;;0.60;;
47489;SDS011;33226;56.996;14.584;2022-07-15T09:27:48;1.52;;;0.52;;
47489;SDS011;33226;56.996;14.584;2022-07-15T09:30:25;2.38;;;0.30;;
47489;SDS011;33226;56.996;14.584;2022-07-15T09:33:12;1.13;;;0.50;;
47489;SDS011;33226;56.996;14.584;2022-07-15T09:36:02;1.38;;;0.40;;
47489;SDS011;33226;56.996;14.584;2022-07-15T09:38:49;10.13;;;0.80;;
47489;SDS011;33226;56.996;14.584;2022-07-15T09:44:01;1.35;;;0.60;;
47489;SDS011;33226;56.996;14.584;2022-07-15T09:46:44;1.40;;;0.77;;
47489;SDS011;33226;56.996;14.584;2022-07-15T09:51:55;1.08;;;0.40;;
47489;SDS011;33226;56.996;14.584;2022-07-15T09:54:23;1.02;;;0.30;;
47489;SDS011;33226;56.996;14.584;2022-07-15T09:56:51;0.90;;;0.40;;
47489;SDS011;33226;56.996;14.584;2022-07-15T09:59:17;0.68;;;0.32;;
47489;SDS011;33226;56.996;14.584;2022-07-15T10:01:44;1.85;;;0.50;;
47489;SDS011;33226;56.996;14.584;2022-07-15T10:04:13;0.55;;;0.30;;
47489;SDS011;33226;56.996;14.584;2022-07-15T10:06:40;8.20;;;0.80;;
47489;SDS011;33226;56.996;14.584;2022-07-15T10:09:07;1.10;;;0.55;;
47489;SDS011;33226;56.996;14.584;2022-07-15T10:11:38;2.25;;;0.40;;
47489;SDS011;33226;56.996;14.584;2022-07-15T10:30:34;2.00;;;0.40;;
47489;SDS011;33226;56.996;14.584;2022-07-15T10:35:40;2.33;;;0.60;;
47489;SDS011;33226;56.996;14.584;2022-07-15T10:38:19;1.10;;;0.40;;
47489;SDS011;33226;56.996;14.584;2022-07-15T10:41:06;1.98;;;0.40;;
47489;SDS011;33226;56.996;14.584;2022-07-15T10:51:13;1.65;;;0.35;;
47489;SDS011;33226;56.996;14.584;2022-07-15T10:54:04;0.63;;;0.30;;
47489;SDS011;33226;56.996;14.584;2022-07-15T10:56:42;0.40;;;0.30;;
47489;SDS011;33226;56.996;14.584;2022-07-15T10:59:11;1.33;;;0.30;;
47489;SDS011;33226;56.996;14.584;2022-07-15T11:01:44;0.47;;;0.30;;
47489;SDS011;33226;56.996;14.584;2022-07-15T11:15:15;1.48;;;0.43;;
47489;SDS011;33226;56.996;14.584;2022-07-15T11:17:51;2.35;;;0.30;;
47489;SDS011;33226;56.996;14.584;2022-07-15T11:20:20;0.98;;;0.30;;
47489;SDS011;33226;56.996;14.584;2022-07-15T11:22:49;0.88;;;0.40;;
47489;SDS011;33226;56.996;14.584;2022-07-15T11:30:22;0.65;;;0.30;;
47489;SDS011;33226;56.996;14.584;2022-07-15T11:32:53;1.92;;;0.22;;
47489;SDS011;33226;56.996;14.584;2022-07-15T11:35:20;2.00;;;0.22;;
47489;SDS011;33226;56.996;14.584;2022-07-15T11:37:46;0.50;;;0.28;;
47489;SDS011;33226;56.996;14.584;2022-07-15T11:40:13;0.60;;;0.38;;
47489;SDS011;33226;56.996;14.584;2022-07-15T11:42:59;1.10;;;0.40;;
47489;SDS011;33226;56.996;14.584;2022-07-15T11:45:44;1.35;;;0.40;;
47489;SDS011;33226;56.996;14.584;2022-07-15T11:48:11;1.42;;;0.30;;
47489;SDS011;33226;56.996;14.584;2022-07-15T11:50:37;2.45;;;0.40;;
47489;SDS011;33226;56.996;14.584;2022-07-15T11:53:14;1.30;;;0.50;;
47489;SDS011;33226;56.996;14.584;2022-07-15T11:55:47;1.38;;;0.40;;
47489;SDS011;33226;56.996;14.584;2022-07-15T11:58:13;0.95;;;0.50;;
47489;SDS011;33226;56.996;14.584;2022-07-15T12:00:38;2.92;;;0.30;;
47489;SDS011;33226;56.996;14.584;2022-07-15T12:03:08;1.48;;;0.30;;
47489;SDS011;33226;56.996;14.584;2022-07-15T12:05:33;0.30;;;0.20;;
47489;SDS011;33226;56.996;14.584;2022-07-15T12:07:59;1.35;;;0.20;;
47489;SDS011;33226;56.996;14.584;2022-07-15T12:10:34;0.52;;;0.30;;
47489;SDS011;33226;56.996;14.584;2022-07-15T12:13:03;0.35;;;0.30;;
47489;SDS011;33226;56.996;14.584;2022-07-15T12:15:30;1.33;;;0.30;;
47489;SDS011;33226;56.996;14.584;2022-07-15T12:17:57;0.35;;;0.25;;
47489;SDS011;33226;56.996;14.584;2022-07-15T12:20:23;0.80;;;0.30;;
47489;SDS011;33226;56.996;14.584;2022-07-15T12:26:00;1.17;;;0.30;;
47489;SDS011;33226;56.996;14.584;2022-07-15T12:28:33;0.77;;;0.38;;
47489;SDS011;33226;56.996;14.584;2022-07-15T12:31:00;0.43;;;0.40;;
47489;SDS011;33226;56.996;14.584;2022-07-15T12:33:26;0.80;;;0.30;;
47489;SDS011;33226;56.996;14.584;2022-07-15T12:38:37;6.38;;;1.58;;
47489;SDS011;33226;56.996;14.584;2022-07-15T12:41:06;1.35;;;0.40;;
47489;SDS011;33226;56.996;14.584;2022-07-15T12:43:46;0.32;;;0.28;;
47489;SDS011;33226;56.996;14.584;2022-07-15T12:46:13;1.40;;;0.32;;
47489;SDS011;33226;56.996;14.584;2022-07-15T12:48:43;0.70;;;0.30;;
47489;SDS011;33226;56.996;14.584;2022-07-15T12:51:11;0.90;;;0.40;;
47489;SDS011;33226;56.996;14.584;2022-07-15T12:53:37;0.63;;;0.30;;
47489;SDS011;33226;56.996;14.584;2022-07-15T12:56:03;1.55;;;0.30;;
47489;SDS011;33226;56.996;14.584;2022-07-15T12:58:31;0.65;;;0.30;;
47489;SDS011;33226;56.996;14.584;2022-07-15T13:01:07;2.38;;;0.30;;
47489;SDS011;33226;56.996;14.584;2022-07-15T13:03:35;0.30;;;0.20;;
47489;SDS011;33226;56.996;14.584;2022-07-15T13:06:01;0.52;;;0.20;;
47489;SDS011;33226;56.996;14.584;2022-07-15T13:08:31;2.22;;;0.30;;
47489;SDS011;33226;56.996;14.584;2022-07-15T13:11:00;1.35;;;0.30;;
47489;SDS011;33226;56.996;14.584;2022-07-15T13:13:30;1.10;;;0.38;;
47489;SDS011;33226;56.996;14.584;2022-07-15T13:15:57;2.05;;;0.75;;
47489;SDS011;33226;56.996;14.584;2022-07-15T13:18:24;3.75;;;0.40;;
47489;SDS011;33226;56.996;14.584;2022-07-15T13:20:50;0.63;;;0.30;;
47489;SDS011;33226;56.996;14.584;2022-07-15T13:23:17;0.52;;;0.30;;
47489;SDS011;33226;56.996;14.584;2022-07-15T13:25:42;0.85;;;0.40;;
47489;SDS011;33226;56.996;14.584;2022-07-15T13:28:10;0.28;;;0.20;;
47489;SDS011;33226;56.996;14.584;2022-07-15T13:30:36;0.40;;;0.40;;
47489;SDS011;33226;56.996;14.584;2022-07-15T13:33:03;0.45;;;0.40;;
47489;SDS011;33226;56.996;14.584;2022-07-15T13:35:29;1.05;;;0.30;;
47489;SDS011;33226;56.996;14.584;2022-07-15T13:37:55;0.88;;;0.57;;
47489;SDS011;33226;56.996;14.584;2022-07-15T13:40:21;0.25;;;0.20;;
47489;SDS011;33226;56.996;14.584;2022-07-15T13:42:46;0.20;;;0.20;;
47489;SDS011;33226;56.996;14.584;2022-07-15T13:45:13;0.43;;;0.30;;
47489;SDS011;33226;56.996;14.584;2022-07-15T13:47:39;0.57;;;0.30;;
47489;SDS011;33226;56.996;14.584;2022-07-15T13:50:06;2.05;;;0.40;;
47489;SDS011;33226;56.996;14.584;2022-07-15T13:52:51;2.15;;;0.40;;
47489;SDS011;33226;56.996;14.584;2022-07-15T13:55:21;2.28;;;0.30;;
47489;SDS011;33226;56.996;14.584;2022-07-15T13:57:47;0.80;;;0.30;;
47489;SDS011;33226;56.996;14.584;2022-07-15T14:00:14;0.73;;;0.50;;
47489;SDS011;33226;56.996;14.584;2022-07-15T14:02:42;0.60;;;0.30;;
47489;SDS011;33226;56.996;14.584;2022-07-15T14:05:09;0.93;;;0.40;;
47489;SDS011;33226;56.996;14.584;2022-07-15T14:07:36;0.50;;;0.30;;
47489;SDS011;33226;56.996;14.584;2022-07-15T14:10:02;0.40;;;0.40;;
47489;SDS011;33226;56.996;14.584;2022-07-15T14:12:28;0.93;;;0.40;;
47489;SDS011;33226;56.996;14.584;2022-07-15T14:14:53;1.17;;;0.32;;
47489;SDS011;33226;56.996;14.584;2022-07-15T14:17:19;0.90;;;0.30;;
47489;SDS011;33226;56.996;14.584;2022-07-15T14:19:45;2.63;;;0.73;;
47489;SDS011;33226;56.996;14.584;2022-07-15T14:22:11;1.90;;;0.40;;
47489;SDS011;33226;56.996;14.584;2022-07-15T14:24:37;0.68;;;0.32;;
47489;SDS011;33226;56.996;14.584;2022-07-15T14:27:03;1.00;;;0.30;;
47489;SDS011;33226;56.996;14.584;2022-07-15T14:29:29;0.75;;;0.32;;
47489;SDS011;33226;56.996;14.584;2022-07-15T14:31:55;0.38;;;0.20;;
47489;SDS011;33226;56.996;14.584;2022-07-15T14:34:21;0.65;;;0.30;;
47489;SDS011;33226;56.996;14.584;2022-07-15T14:36:47;1.30;;;0.50;;
47489;SDS011;33226;56.996;14.584;2022-07-15T14:39:12;0.60;;;0.40;;
47489;SDS011;33226;56.996;14.584;2022-07-15T14:41:38;2.33;;;0.38;;
47489;SDS011;33226;56.996;14.584;2022-07-15T14:44:05;1.52;;;0.20;;
47489;SDS011;33226;56.996;14.584;2022-07-15T14:46:30;1.48;;;0.40;;
47489;SDS011;33226;56.996;14.584;2022-07-15T14:48:56;1.05;;;0.43;;
47489;SDS011;33226;56.996;14.584;2022-07-15T14:51:22;1.67;;;0.40;;
47489;SDS011;33226;56.996;14.584;2022-07-15T14:53:48;2.25;;;0.45;;
47489;SDS011;33226;56.996;14.584;2022-07-15T14:56:13;2.20;;;0.38;;
47489;SDS011;33226;56.996;14.584;2022-07-15T14:58:39;1.95;;;0.30;;
47489;SDS011;33226;56.996;14.584;2022-07-15T15:01:05;0.60;;;0.30;;
47489;SDS011;33226;56.996;14.584;2022-07-15T15:03:30;0.73;;;0.30;;
47489;SDS011;33226;56.996;14.584;2022-07-15T15:05:56;0.47;;;0.35;;
47489;SDS011;33226;56.996;14.584;2022-07-15T15:08:23;0.30;;;0.30;;
47489;SDS011;33226;56.996;14.584;2022-07-15T15:10:49;0.50;;;0.20;;
47489;SDS011;33226;56.996;14.584;2022-07-15T15:13:14;0.40;;;0.30;;
47489;SDS011;33226;56.996;14.584;2022-07-15T15:15:41;1.15;;;0.40;;
47489;SDS011;33226;56.996;14.584;2022-07-15T15:18:07;1.42;;;0.50;;
47489;SDS011;33226;56.996;14.584;2022-07-15T15:20:33;1.33;;;0.60;;
47489;SDS011;33226;56.996;14.584;2022-07-15T15:22:58;1.50;;;0.75;;
47489;SDS011;33226;56.996;14.584;2022-07-15T15:25:24;1.40;;;0.50;;
47489;SDS011;33226;56.996;14.584;2022-07-15T15:28:08;1.75;;;0.30;;
47489;SDS011;33226;56.996;14.584;2022-07-15T15:30:34;1.05;;;0.30;;
47489;SDS011;33226;56.996;14.584;2022-07-15T15:32:59;2.22;;;0.40;;
47489;SDS011;33226;56.996;14.584;2022-07-15T15:35:25;1.98;;;0.55;;